Barbara P — CQHY — position and weather

sailwx.info

Track history (hours):
 
Tides and Currents Weather Stations Pressure Air Temp Water Temp Dewpoint Dewpoint Depression Visibility Wind Speed Wind Dir Waves Ship Positions

Barbara P

Last reported at 2018-Jun-22 12:56 UTC. Time now 2018-Jun-23 06:32 UTC.
Position N 29°08' W 013°17'.

Length 139 m; draft 8 m.

Type: Ship (hazmat cat A). MMSI: 255805600.

Date/timePositionNaut miles runAvg speedWind from/ knotsBaromVisibWave heightAir tempDewpointWater temp
2018-Jun-22 12:56N 29°08' W 013°17'613.8
2018-Jun-22 12:30N 29°04' W 013°22'713.5
2018-Jun-22 11:58N 28°58' W 013°28'4 7.4
2018-Jun-22 11:28N 28°58' W 013°32'0 0.4
2018-Jun-22 10:34N 28°58' W 013°32'0 0.0
2018-Jun-22 10:28N 28°58' W 013°32'0 0.0
2018-Jun-22 09:04N 28°58' W 013°32'0 0.0
2018-Jun-22 08:40N 28°58' W 013°32'0 0.0
2018-Jun-22 08:25N 28°58' W 013°32'0 0.0
2018-Jun-22 06:44N 28°58' W 013°32'0 2.0
2018-Jun-22 06:31N 28°58' W 013°32'5 9.4
2018-Jun-22 05:58N 28°54' W 013°36'815.9
2018-Jun-22 05:30N 28°50' W 013°43'815.6
2018-Jun-22 04:59N 28°48' W 013°52'816.1
2018-Jun-22 04:30N 28°48' W 014°01'815.7
2018-Jun-22 04:00N 28°47' W 014°10'815.8
2018-Jun-22 03:30N 28°47' W 014°19'815.6
2018-Jun-22 03:00N 28°46' W 014°28'815.7
2018-Jun-22 02:29N 28°45' W 014°37'816.1
2018-Jun-22 02:00N 28°44' W 014°46'816.0
2018-Jun-22 01:30N 28°43' W 014°55'816.3
2018-Jun-22 01:00N 28°42' W 015°04'816.3
2018-Jun-22 00:30N 28°41' W 015°13'816.1
2018-Jun-22 00:00N 28°41' W 015°22'816.0
2018-Jun-21 23:30N 28°40' W 015°31'816.1
2018-Jun-21 23:00N 28°39' W 015°41'816.0
2018-Jun-21 22:30N 28°37' W 015°49'815.8
2018-Jun-21 22:01N 28°34' W 015°58'815.7
2018-Jun-21 21:30N 28°31' W 016°06'714.6
2018-Jun-21 21:00N 28°29' W 016°14'1 1.2
2018-Jun-21 20:28N 28°29' W 016°13'0 0.0
2018-Jun-21 19:58N 28°29' W 016°13'0 0.0
2018-Jun-21 19:28N 28°29' W 016°13'0 0.0
2018-Jun-21 18:58N 28°29' W 016°13'0 0.0
2018-Jun-21 18:28N 28°29' W 016°13'0 0.0
2018-Jun-21 17:58N 28°29' W 016°13'0 0.0
2018-Jun-21 17:28N 28°29' W 016°13'0 0.0
2018-Jun-21 16:58N 28°29' W 016°13'0 0.0
2018-Jun-21 16:28N 28°29' W 016°13'0 0.0
2018-Jun-21 15:58N 28°29' W 016°13'0 0.0
2018-Jun-21 15:28N 28°29' W 016°13'0 0.0
2018-Jun-21 14:58N 28°29' W 016°13'0 0.0
2018-Jun-21 14:28N 28°29' W 016°13'0 0.0
2018-Jun-21 13:58N 28°29' W 016°13'0 0.0
2018-Jun-21 13:28N 28°29' W 016°13'0 0.0
2018-Jun-21 12:58N 28°29' W 016°13'0 0.0
2018-Jun-21 12:28N 28°29' W 016°13'0 0.0
2018-Jun-21 11:58N 28°29' W 016°13'0 0.0
2018-Jun-21 11:28N 28°29' W 016°13'0 0.0
2018-Jun-21 11:00N 28°29' W 016°13'2 3.0
2018-Jun-21 10:30N 28°28' W 016°13'510.7
2018-Jun-21 10:00N 28°25' W 016°07'611.4
2018-Jun-21 09:30N 28°23' W 016°01'611.1
2018-Jun-21 09:00N 28°20' W 015°56'611.2
2018-Jun-21 08:30N 28°18' W 015°50'611.4
2018-Jun-21 08:00N 28°17' W 015°44'611.5
2018-Jun-21 07:30N 28°16' W 015°37'611.3
2018-Jun-21 07:00N 28°14' W 015°31'611.3
2018-Jun-21 06:30N 28°13' W 015°25'5 9.4
2018-Jun-21 06:00N 28°10' W 015°21'4 7.8
2018-Jun-21 05:30N 28°08' W 015°25'0 0.6
2018-Jun-21 04:59N 28°08' W 015°25'0 0.0
2018-Jun-21 04:29N 28°08' W 015°25'0 0.0
2018-Jun-21 03:59N 28°08' W 015°25'0 0.0
2018-Jun-21 03:29N 28°08' W 015°25'0 0.0
2018-Jun-21 02:59N 28°08' W 015°25'0 0.0
2018-Jun-21 02:29N 28°08' W 015°25'0 0.0
2018-Jun-21 01:59N 28°08' W 015°25'0 0.0
2018-Jun-21 01:29N 28°08' W 015°25'0 0.0
2018-Jun-21 00:59N 28°08' W 015°25'0 0.0
2018-Jun-21 00:29N 28°08' W 015°25'0 0.0
2018-Jun-20 23:59N 28°08' W 015°25'0 0.0
2018-Jun-20 23:20N 28°08' W 015°25'0 0.0
2018-Jun-20 22:50N 28°08' W 015°25'0 0.0
2018-Jun-20 22:20N 28°08' W 015°25'0 0.0
2018-Jun-20 21:53N 28°08' W 015°25'0 0.0
2018-Jun-20 21:23N 28°08' W 015°25'0 0.0
2018-Jun-20 20:53N 28°08' W 015°25'0 0.0
2018-Jun-20 20:23N 28°08' W 015°25'0 0.0
2018-Jun-20 19:53N 28°08' W 015°25'0 0.0
2018-Jun-20 19:26N 28°08' W 015°25'0 0.0
2018-Jun-20 18:56N 28°08' W 015°25'0 0.0
2018-Jun-20 18:26N 28°08' W 015°25'0 0.0
2018-Jun-20 17:56N 28°08' W 015°25'0 0.0
2018-Jun-20 17:23N 28°08' W 015°25'0 0.0
2018-Jun-20 16:56N 28°08' W 015°25'0 0.0
2018-Jun-20 16:29N 28°08' W 015°25'0 0.0
2018-Jun-20 15:59N 28°08' W 015°25'0 0.0
2018-Jun-20 15:29N 28°08' W 015°25'0 0.0
2018-Jun-20 14:59N 28°08' W 015°25'0 0.0
2018-Jun-20 14:29N 28°08' W 015°25'0 0.0
2018-Jun-20 13:59N 28°08' W 015°25'0 0.0
2018-Jun-20 13:29N 28°08' W 015°25'0 0.0
2018-Jun-20 12:59N 28°08' W 015°25'0 0.0
2018-Jun-20 12:29N 28°08' W 015°25'0 0.0
2018-Jun-20 11:59N 28°08' W 015°25'0 0.0
2018-Jun-20 11:29N 28°08' W 015°25'0 0.0
2018-Jun-20 10:59N 28°08' W 015°25'0 0.0
2018-Jun-20 10:29N 28°08' W 015°25'0 0.0
2018-Jun-20 09:59N 28°08' W 015°25'0 0.0
2018-Jun-20 09:20N 28°08' W 015°25'0 0.0
2018-Jun-20 08:47N 28°08' W 015°25'0 0.0
2018-Jun-20 08:20N 28°08' W 015°25'0 0.0
2018-Jun-20 07:53N 28°08' W 015°25'0 0.0
2018-Jun-20 07:23N 28°08' W 015°25'0 0.0
2018-Jun-20 06:53N 28°08' W 015°25'0 0.0
2018-Jun-20 06:23N 28°08' W 015°25'0 0.0
2018-Jun-20 05:53N 28°08' W 015°25'1 2.5
2018-Jun-20 05:30N 28°07' W 015°24'3 6.7
2018-Jun-20 05:00N 28°09' W 015°21'510.3
2018-Jun-20 04:30N 28°13' W 015°24'611.2
2018-Jun-20 04:00N 28°14' W 015°31'611.1
2018-Jun-20 03:30N 28°15' W 015°37'510.8
2018-Jun-20 03:00N 28°16' W 015°43'510.6
2018-Jun-20 02:30N 28°17' W 015°49'510.5
2018-Jun-20 01:59N 28°19' W 015°55'510.7
2018-Jun-20 01:30N 28°21' W 015°60'510.8
2018-Jun-20 01:00N 28°24' W 016°05'510.9
2018-Jun-20 00:30N 28°27' W 016°10'4 7.4
2018-Jun-20 00:00N 28°29' W 016°13'0 0.0
2018-Jun-19 23:30N 28°29' W 016°13'0 0.0
2018-Jun-19 23:00N 28°29' W 016°13'0 0.0
2018-Jun-19 22:30N 28°29' W 016°13'0 0.0
2018-Jun-19 22:00N 28°29' W 016°13'0 0.0
2018-Jun-19 21:30N 28°29' W 016°13'0 0.0
2018-Jun-19 21:00N 28°29' W 016°13'0 0.0
2018-Jun-19 20:30N 28°29' W 016°13'0 0.0
2018-Jun-19 20:00N 28°29' W 016°13'0 0.0
2018-Jun-19 19:30N 28°29' W 016°13'0 0.0
2018-Jun-19 19:00N 28°29' W 016°13'0 0.0
2018-Jun-19 18:30N 28°29' W 016°13'0 0.0
2018-Jun-19 18:00N 28°29' W 016°13'0 0.0
2018-Jun-19 17:30N 28°29' W 016°13'0 0.0
2018-Jun-19 17:00N 28°29' W 016°13'0 0.0
2018-Jun-19 16:30N 28°29' W 016°13'0 0.0
2018-Jun-19 16:00N 28°29' W 016°13'0 0.0
2018-Jun-19 15:30N 28°29' W 016°13'0 0.0
2018-Jun-19 15:00N 28°29' W 016°13'0 0.0
2018-Jun-19 14:30N 28°29' W 016°13'0 0.0
2018-Jun-19 14:01N 28°29' W 016°13'2 3.6
2018-Jun-19 13:30N 28°28' W 016°12'815.4
2018-Jun-19 13:00N 28°32' W 016°04'816.3
2018-Jun-19 12:30N 28°37' W 015°57'816.1
2018-Jun-19 12:00N 28°42' W 015°50'916.0
2018-Jun-19 11:28N 28°48' W 015°43'716.3
2018-Jun-19 11:01N 28°53' W 015°37'916.4
2018-Jun-19 10:29N 28°58' W 015°29'816.3
2018-Jun-19 10:00N 29°04' W 015°22'816.6
2018-Jun-19 09:30N 29°09' W 015°15'816.6
2018-Jun-19 09:00N 29°14' W 015°08'816.5
2018-Jun-19 08:30N 29°19' W 015°01'816.3
2018-Jun-19 08:00N 29°25' W 014°54'816.1
2018-Jun-19 07:30N 29°30' W 014°47'815.9
2018-Jun-19 06:58N 29°36' W 014°39'916.6
2018-Jun-19 06:27N 29°41' W 014°32'916.4
2018-Jun-19 05:54N 29°47' W 014°24'916.0
2018-Jun-19 05:19N 29°53' W 014°16'616.1
2018-Jun-19 04:57N 29°57' W 014°11'56615.7
2018-Jun-17 16:56N 35°58' W 005°31'614.9
2018-Jun-17 16:30N 36°00' W 005°24'714.8
2018-Jun-17 16:00N 36°02' W 005°15'17515.0
2018-Jun-17 04:23N 36°46' W 001°45'716.7
2018-Jun-17 03:57N 36°51' W 001°37'1316.4
2018-Jun-17 03:08N 36°59' W 001°24'416.6
2018-Jun-17 02:56N 37°01' W 001°21'816.7
2018-Jun-17 02:29N 37°07' W 001°15'816.9
2018-Jun-17 02:00N 37°12' W 001°07'816.5
2018-Jun-17 01:30N 37°17' W 000°59'816.4
2018-Jun-17 01:00N 37°22' W 000°51'816.3
2018-Jun-17 00:30N 37°27' W 000°43'816.4
2018-Jun-17 00:00N 37°33' W 000°35'816.7
2018-Jun-16 23:31N 37°39' W 000°29'916.9
2018-Jun-16 22:58N 37°47' W 000°22'816.8
2018-Jun-16 22:30N 37°53' W 000°17'1516.7
2018-Jun-16 21:36N 38°06' W 000°07'116.6
2018-Jun-16 21:31N 38°08' W 000°06'816.7
2018-Jun-16 21:00N 38°15' W 000°00'816.4
2018-Jun-16 20:30N 38°21' E 000°05'816.3
2018-Jun-16 20:00N 38°28' E 000°11'815.8
2018-Jun-16 19:30N 38°35' E 000°17'915.7
2018-Jun-16 18:56N 38°42' E 000°23'815.0
2018-Jun-16 18:23N 38°50' E 000°20'4415.9
2018-Jun-16 15:37N 39°29' W 000°06'316.3
2018-Jun-16 15:28N 39°32' W 000°07'714.3
2018-Jun-16 14:57N 39°38' W 000°13'3 0.3
2018-Jun-16 04:40N 39°36' W 000°10'10115.2
2018-Jun-15 22:02N 40°41' E 001°32'1316.4
2018-Jun-15 21:13N 40°51' E 001°43'416.3
2018-Jun-15 20:58N 40°54' E 001°47'816.7
2018-Jun-15 20:30N 40°60' E 001°53'917.0
2018-Jun-15 20:00N 41°06' E 002°01'816.9
2018-Jun-15 19:30N 41°13' E 002°08'714.0
2018-Jun-15 19:01N 41°20' E 002°10'1 2.4
2018-Jun-15 18:31N 41°21' E 002°10'0 0.0
2018-Jun-15 18:00N 41°21' E 002°10'0 0.0
2018-Jun-15 17:30N 41°21' E 002°10'0 0.0
2018-Jun-15 17:00N 41°21' E 002°10'0 0.0
2018-Jun-15 16:30N 41°21' E 002°10'0 0.0
2018-Jun-15 16:00N 41°21' E 002°10'0 0.0
2018-Jun-15 15:30N 41°21' E 002°10'0 0.0
2018-Jun-15 15:00N 41°21' E 002°10'0 0.0
2018-Jun-15 14:30N 41°21' E 002°10'0 0.0
2018-Jun-15 14:00N 41°21' E 002°10'0 0.0
2018-Jun-15 13:27N 41°21' E 002°10'0 0.0
2018-Jun-15 13:00N 41°21' E 002°10'0 0.0
2018-Jun-15 12:30N 41°21' E 002°10'0 0.0
2018-Jun-15 11:57N 41°21' E 002°10'0 0.0
2018-Jun-15 11:30N 41°21' E 002°10'0 0.0
2018-Jun-15 11:00N 41°21' E 002°10'0 0.0
2018-Jun-15 10:30N 41°21' E 002°10'0 0.0
2018-Jun-15 10:00N 41°21' E 002°10'0 0.0
2018-Jun-15 09:30N 41°21' E 002°10'0 0.0
2018-Jun-15 09:00N 41°21' E 002°10'0 0.0
2018-Jun-15 08:30N 41°21' E 002°10'0 0.0
2018-Jun-15 08:00N 41°21' E 002°10'0 0.0
2018-Jun-15 07:30N 41°21' E 002°10'0 0.0
2018-Jun-15 07:00N 41°21' E 002°10'0 0.0
2018-Jun-15 06:24N 41°21' E 002°10'0 0.0
2018-Jun-15 06:00N 41°21' E 002°10'0 0.0
2018-Jun-15 05:30N 41°21' E 002°10'0 0.0
2018-Jun-15 05:00N 41°21' E 002°10'0 0.0
2018-Jun-15 04:30N 41°21' E 002°10'0 0.0
2018-Jun-15 04:00N 41°21' E 002°10'0 0.0
2018-Jun-15 03:30N 41°21' E 002°10'0 0.0
2018-Jun-15 03:00N 41°21' E 002°10'0 0.0
2018-Jun-15 02:30N 41°21' E 002°10'0 0.0
2018-Jun-15 02:00N 41°21' E 002°10'0 0.0
2018-Jun-15 01:30N 41°21' E 002°10'0 0.0
2018-Jun-15 01:00N 41°21' E 002°10'0 0.0
2018-Jun-15 00:30N 41°21' E 002°10'0 0.0
2018-Jun-15 00:00N 41°21' E 002°10'0 0.0
2018-Jun-14 23:30N 41°21' E 002°10'0 0.0
2018-Jun-14 23:00N 41°21' E 002°10'0 0.0
2018-Jun-14 22:27N 41°21' E 002°10'0 0.0
2018-Jun-14 21:57N 41°21' E 002°10'0 0.0
2018-Jun-14 21:27N 41°21' E 002°10'0 0.0
2018-Jun-14 20:51N 41°21' E 002°10'0 0.0
2018-Jun-14 20:27N 41°21' E 002°10'0 0.0
2018-Jun-14 19:57N 41°21' E 002°10'0 0.0
2018-Jun-14 19:27N 41°21' E 002°10'0 0.0
2018-Jun-14 18:57N 41°21' E 002°10'0 0.0
2018-Jun-14 18:27N 41°21' E 002°10'0 0.0
2018-Jun-14 17:57N 41°21' E 002°10'0 0.0
2018-Jun-14 17:21N 41°21' E 002°10'0 0.0
2018-Jun-14 16:57N 41°21' E 002°10'0 0.0
2018-Jun-14 16:27N 41°21' E 002°10'0 0.0
2018-Jun-14 15:57N 41°21' E 002°10'0 0.0
2018-Jun-14 15:30N 41°21' E 002°10'1 2.9
2018-Jun-14 15:00N 41°19' E 002°10'2 4.9
2018-Jun-14 14:30N 41°17' E 002°12'1 2.6
2018-Jun-14 14:00N 41°19' E 002°11'0 0.8
2018-Jun-14 13:29N 41°19' E 002°12'0 0.1
2018-Jun-14 12:59N 41°19' E 002°12'0 0.0
2018-Jun-14 12:29N 41°19' E 002°12'0 0.0
2018-Jun-14 11:59N 41°19' E 002°12'0 0.1
2018-Jun-14 11:29N 41°19' E 002°12'0 0.0
2018-Jun-14 10:59N 41°19' E 002°12'0 0.0
2018-Jun-14 10:29N 41°19' E 002°12'0 0.1
2018-Jun-14 09:59N 41°19' E 002°12'0 0.0
2018-Jun-14 09:29N 41°19' E 002°12'0 0.0
2018-Jun-14 08:59N 41°19' E 002°12'0 0.0
2018-Jun-14 07:56N 41°19' E 002°12'0 0.0
2018-Jun-14 07:29N 41°19' E 002°12'0 0.1
2018-Jun-14 06:59N 41°19' E 002°12'0 0.0
2018-Jun-14 06:29N 41°19' E 002°12'0 0.0
2018-Jun-14 05:59N 41°19' E 002°12'0 0.0
2018-Jun-14 05:29N 41°19' E 002°12'0 0.0
2018-Jun-14 04:59N 41°19' E 002°12'0 0.1
2018-Jun-14 04:29N 41°19' E 002°12'0 0.0
2018-Jun-14 03:59N 41°19' E 002°12'0 0.1
2018-Jun-14 03:29N 41°19' E 002°12'0 0.1
2018-Jun-14 02:59N 41°19' E 002°12'0 0.0
2018-Jun-14 02:29N 41°19' E 002°12'0 0.0
2018-Jun-14 01:59N 41°19' E 002°12'0 0.0
2018-Jun-14 01:29N 41°19' E 002°12'0 0.1
2018-Jun-14 00:59N 41°19' E 002°12'0 0.1
2018-Jun-14 00:29N 41°19' E 002°12'0 0.0
2018-Jun-13 23:59N 41°19' E 002°12'0 0.0
2018-Jun-13 23:29N 41°19' E 002°12'0 0.0
2018-Jun-13 22:59N 41°19' E 002°12'0 0.0
2018-Jun-13 22:29N 41°19' E 002°12'0 0.0
2018-Jun-13 21:59N 41°19' E 002°12'0 0.0
2018-Jun-13 21:29N 41°19' E 002°12'0 0.0
2018-Jun-13 20:59N 41°19' E 002°12'0 0.0
2018-Jun-13 20:29N 41°19' E 002°12'0 0.0
2018-Jun-13 19:59N 41°19' E 002°12'0 0.0
2018-Jun-13 19:29N 41°19' E 002°12'0 0.1
2018-Jun-13 18:59N 41°19' E 002°12'0 0.1
2018-Jun-13 18:29N 41°19' E 002°12'0 0.0
2018-Jun-13 17:59N 41°19' E 002°12'0 0.1
2018-Jun-13 17:29N 41°19' E 002°12'0 0.0
2018-Jun-13 16:59N 41°19' E 002°12'0 0.0
2018-Jun-13 16:29N 41°19' E 002°12'0 0.1
2018-Jun-13 15:59N 41°19' E 002°12'0 0.1
2018-Jun-13 15:29N 41°19' E 002°12'0 0.1
2018-Jun-13 14:59N 41°19' E 002°12'0 0.1
2018-Jun-13 14:29N 41°19' E 002°12'0 0.0
2018-Jun-13 13:59N 41°19' E 002°12'0 0.0
2018-Jun-13 13:29N 41°19' E 002°12'0 0.0
2018-Jun-13 12:59N 41°19' E 002°12'0 0.1
2018-Jun-13 12:29N 41°19' E 002°12'0 0.0
2018-Jun-13 11:59N 41°19' E 002°12'0 0.0
2018-Jun-13 11:29N 41°19' E 002°12'0 0.0
2018-Jun-13 10:59N 41°19' E 002°12'0 0.0
2018-Jun-13 10:29N 41°19' E 002°12'0 0.0
2018-Jun-13 09:59N 41°19' E 002°12'0 0.0
2018-Jun-13 09:29N 41°19' E 002°12'0 0.0
2018-Jun-13 08:59N 41°19' E 002°12'0 0.0
2018-Jun-13 08:29N 41°19' E 002°12'0 0.2
2018-Jun-13 07:59N 41°19' E 002°12'0 0.0
2018-Jun-13 07:29N 41°19' E 002°12'0 0.0
2018-Jun-13 06:59N 41°19' E 002°12'0 0.0
2018-Jun-13 06:29N 41°19' E 002°12'0 0.1
2018-Jun-13 05:59N 41°19' E 002°12'0 0.1
2018-Jun-13 05:29N 41°19' E 002°12'0 0.1
2018-Jun-13 04:59N 41°19' E 002°12'0 0.1
2018-Jun-13 04:29N 41°19' E 002°12'0 0.0
2018-Jun-13 03:59N 41°19' E 002°12'0 0.0
2018-Jun-13 03:29N 41°19' E 002°12'0 0.0
2018-Jun-13 02:59N 41°19' E 002°12'0 0.0
2018-Jun-13 02:29N 41°19' E 002°12'0 0.1
2018-Jun-13 01:59N 41°19' E 002°12'0 0.2
2018-Jun-13 01:26N 41°19' E 002°12'0 0.0
2018-Jun-13 00:59N 41°19' E 002°12'0 0.0
2018-Jun-13 00:29N 41°19' E 002°12'0 0.0
2018-Jun-12 23:59N 41°19' E 002°12'0 0.0
2018-Jun-12 23:29N 41°19' E 002°12'0 0.0
2018-Jun-12 22:59N 41°19' E 002°12'0 0.1
2018-Jun-12 22:29N 41°19' E 002°12'0 0.2
2018-Jun-12 21:59N 41°19' E 002°12'0 0.0
2018-Jun-12 21:29N 41°19' E 002°12'0 0.1
2018-Jun-12 20:59N 41°19' E 002°12'0 0.0
2018-Jun-12 20:29N 41°19' E 002°12'0 0.0
2018-Jun-12 19:59N 41°19' E 002°12'0 0.1
2018-Jun-12 19:29N 41°19' E 002°12'0 0.3
2018-Jun-12 19:00N 41°19' E 002°12'2 4.2
2018-Jun-12 18:31N 41°21' E 002°10'0 0.3
2018-Jun-12 17:57N 41°21' E 002°10'0 0.0
2018-Jun-12 17:30N 41°21' E 002°10'0 0.0
2018-Jun-12 17:00N 41°21' E 002°10'0 0.0
2018-Jun-12 16:30N 41°21' E 002°10'0 0.0
2018-Jun-12 16:00N 41°21' E 002°10'0 0.0
2018-Jun-12 15:30N 41°21' E 002°10'0 0.0
2018-Jun-12 15:00N 41°21' E 002°10'0 0.0
2018-Jun-12 14:27N 41°21' E 002°10'0 0.0
2018-Jun-12 14:00N 41°21' E 002°10'0 0.0
2018-Jun-12 13:30N 41°21' E 002°10'0 0.0
2018-Jun-12 12:57N 41°21' E 002°10'  
Track history (hours):
 
Tides and Currents Weather Stations Pressure Air Temp Water Temp Dewpoint Dewpoint Depression Visibility Wind Speed Wind Dir Waves Ship Positions

Barbara P

Last reported at 2018-Jun-22 12:56 UTC. Time now 2018-Jun-23 06:32 UTC.
Position N 29°08' W 013°17'.

Length 139 m; draft 8 m.

Type: Ship (hazmat cat A). MMSI: 255805600.

Date/timePositionNaut miles runAvg speedWind from/ knotsBaromVisibWave heightAir tempDewpointWater temp
2018-Jun-22 12:56N 29°08' W 013°17'613.8
2018-Jun-22 12:30N 29°04' W 013°22'713.5
2018-Jun-22 11:58N 28°58' W 013°28'4 7.4
2018-Jun-22 11:28N 28°58' W 013°32'0 0.4
2018-Jun-22 10:34N 28°58' W 013°32'0 0.0
2018-Jun-22 10:28N 28°58' W 013°32'0 0.0
2018-Jun-22 09:04N 28°58' W 013°32'0 0.0
2018-Jun-22 08:40N 28°58' W 013°32'0 0.0
2018-Jun-22 08:25N 28°58' W 013°32'0 0.0
2018-Jun-22 06:44N 28°58' W 013°32'0 2.0
2018-Jun-22 06:31N 28°58' W 013°32'5 9.4
2018-Jun-22 05:58N 28°54' W 013°36'815.9
2018-Jun-22 05:30N 28°50' W 013°43'815.6
2018-Jun-22 04:59N 28°48' W 013°52'816.1
2018-Jun-22 04:30N 28°48' W 014°01'815.7
2018-Jun-22 04:00N 28°47' W 014°10'815.8
2018-Jun-22 03:30N 28°47' W 014°19'815.6
2018-Jun-22 03:00N 28°46' W 014°28'815.7
2018-Jun-22 02:29N 28°45' W 014°37'816.1
2018-Jun-22 02:00N 28°44' W 014°46'816.0
2018-Jun-22 01:30N 28°43' W 014°55'816.3
2018-Jun-22 01:00N 28°42' W 015°04'816.3
2018-Jun-22 00:30N 28°41' W 015°13'816.1
2018-Jun-22 00:00N 28°41' W 015°22'816.0
2018-Jun-21 23:30N 28°40' W 015°31'816.1
2018-Jun-21 23:00N 28°39' W 015°41'816.0
2018-Jun-21 22:30N 28°37' W 015°49'815.8
2018-Jun-21 22:01N 28°34' W 015°58'815.7
2018-Jun-21 21:30N 28°31' W 016°06'714.6
2018-Jun-21 21:00N 28°29' W 016°14'1 1.2
2018-Jun-21 20:28N 28°29' W 016°13'0 0.0
2018-Jun-21 19:58N 28°29' W 016°13'0 0.0
2018-Jun-21 19:28N 28°29' W 016°13'0 0.0
2018-Jun-21 18:58N 28°29' W 016°13'0 0.0
2018-Jun-21 18:28N 28°29' W 016°13'0 0.0
2018-Jun-21 17:58N 28°29' W 016°13'0 0.0
2018-Jun-21 17:28N 28°29' W 016°13'0 0.0
2018-Jun-21 16:58N 28°29' W 016°13'0 0.0
2018-Jun-21 16:28N 28°29' W 016°13'0 0.0
2018-Jun-21 15:58N 28°29' W 016°13'0 0.0
2018-Jun-21 15:28N 28°29' W 016°13'0 0.0
2018-Jun-21 14:58N 28°29' W 016°13'0 0.0
2018-Jun-21 14:28N 28°29' W 016°13'0 0.0
2018-Jun-21 13:58N 28°29' W 016°13'0 0.0
2018-Jun-21 13:28N 28°29' W 016°13'0 0.0
2018-Jun-21 12:58N 28°29' W 016°13'0 0.0
2018-Jun-21 12:28N 28°29' W 016°13'0 0.0
2018-Jun-21 11:58N 28°29' W 016°13'0 0.0
2018-Jun-21 11:28N 28°29' W 016°13'0 0.0
2018-Jun-21 11:00N 28°29' W 016°13'2 3.0
2018-Jun-21 10:30N 28°28' W 016°13'510.7
2018-Jun-21 10:00N 28°25' W 016°07'611.4
2018-Jun-21 09:30N 28°23' W 016°01'611.1
2018-Jun-21 09:00N 28°20' W 015°56'611.2
2018-Jun-21 08:30N 28°18' W 015°50'611.4
2018-Jun-21 08:00N 28°17' W 015°44'611.5
2018-Jun-21 07:30N 28°16' W 015°37'611.3
2018-Jun-21 07:00N 28°14' W 015°31'611.3
2018-Jun-21 06:30N 28°13' W 015°25'5 9.4
2018-Jun-21 06:00N 28°10' W 015°21'4 7.8
2018-Jun-21 05:30N 28°08' W 015°25'0 0.6
2018-Jun-21 04:59N 28°08' W 015°25'0 0.0
2018-Jun-21 04:29N 28°08' W 015°25'0 0.0
2018-Jun-21 03:59N 28°08' W 015°25'0 0.0
2018-Jun-21 03:29N 28°08' W 015°25'0 0.0
2018-Jun-21 02:59N 28°08' W 015°25'0 0.0
2018-Jun-21 02:29N 28°08' W 015°25'0 0.0
2018-Jun-21 01:59N 28°08' W 015°25'0 0.0
2018-Jun-21 01:29N 28°08' W 015°25'0 0.0
2018-Jun-21 00:59N 28°08' W 015°25'0 0.0
2018-Jun-21 00:29N 28°08' W 015°25'0 0.0
2018-Jun-20 23:59N 28°08' W 015°25'0 0.0
2018-Jun-20 23:20N 28°08' W 015°25'0 0.0
2018-Jun-20 22:50N 28°08' W 015°25'0 0.0
2018-Jun-20 22:20N 28°08' W 015°25'0 0.0
2018-Jun-20 21:53N 28°08' W 015°25'0 0.0
2018-Jun-20 21:23N 28°08' W 015°25'0 0.0
2018-Jun-20 20:53N 28°08' W 015°25'0 0.0
2018-Jun-20 20:23N 28°08' W 015°25'0 0.0
2018-Jun-20 19:53N 28°08' W 015°25'0 0.0
2018-Jun-20 19:26N 28°08' W 015°25'0 0.0
2018-Jun-20 18:56N 28°08' W 015°25'0 0.0
2018-Jun-20 18:26N 28°08' W 015°25'0 0.0
2018-Jun-20 17:56N 28°08' W 015°25'0 0.0
2018-Jun-20 17:23N 28°08' W 015°25'0 0.0
2018-Jun-20 16:56N 28°08' W 015°25'0 0.0
2018-Jun-20 16:29N 28°08' W 015°25'0 0.0
2018-Jun-20 15:59N 28°08' W 015°25'0 0.0
2018-Jun-20 15:29N 28°08' W 015°25'0 0.0
2018-Jun-20 14:59N 28°08' W 015°25'0 0.0
2018-Jun-20 14:29N 28°08' W 015°25'0 0.0
2018-Jun-20 13:59N 28°08' W 015°25'0 0.0
2018-Jun-20 13:29N 28°08' W 015°25'0 0.0
2018-Jun-20 12:59N 28°08' W 015°25'0 0.0
2018-Jun-20 12:29N 28°08' W 015°25'0 0.0
2018-Jun-20 11:59N 28°08' W 015°25'0 0.0
2018-Jun-20 11:29N 28°08' W 015°25'0 0.0
2018-Jun-20 10:59N 28°08' W 015°25'0 0.0
2018-Jun-20 10:29N 28°08' W 015°25'0 0.0
2018-Jun-20 09:59N 28°08' W 015°25'0 0.0
2018-Jun-20 09:20N 28°08' W 015°25'0 0.0
2018-Jun-20 08:47N 28°08' W 015°25'0 0.0
2018-Jun-20 08:20N 28°08' W 015°25'0 0.0
2018-Jun-20 07:53N 28°08' W 015°25'0 0.0
2018-Jun-20 07:23N 28°08' W 015°25'0 0.0
2018-Jun-20 06:53N 28°08' W 015°25'0 0.0
2018-Jun-20 06:23N 28°08' W 015°25'0 0.0
2018-Jun-20 05:53N 28°08' W 015°25'1 2.5
2018-Jun-20 05:30N 28°07' W 015°24'3 6.7
2018-Jun-20 05:00N 28°09' W 015°21'510.3
2018-Jun-20 04:30N 28°13' W 015°24'611.2
2018-Jun-20 04:00N 28°14' W 015°31'611.1
2018-Jun-20 03:30N 28°15' W 015°37'510.8
2018-Jun-20 03:00N 28°16' W 015°43'510.6
2018-Jun-20 02:30N 28°17' W 015°49'510.5
2018-Jun-20 01:59N 28°19' W 015°55'510.7
2018-Jun-20 01:30N 28°21' W 015°60'510.8
2018-Jun-20 01:00N 28°24' W 016°05'510.9
2018-Jun-20 00:30N 28°27' W 016°10'4 7.4
2018-Jun-20 00:00N 28°29' W 016°13'0 0.0
2018-Jun-19 23:30N 28°29' W 016°13'0 0.0
2018-Jun-19 23:00N 28°29' W 016°13'0 0.0
2018-Jun-19 22:30N 28°29' W 016°13'0 0.0
2018-Jun-19 22:00N 28°29' W 016°13'0 0.0
2018-Jun-19 21:30N 28°29' W 016°13'0 0.0
2018-Jun-19 21:00N 28°29' W 016°13'0 0.0
2018-Jun-19 20:30N 28°29' W 016°13'0 0.0
2018-Jun-19 20:00N 28°29' W 016°13'0 0.0
2018-Jun-19 19:30N 28°29' W 016°13'0 0.0
2018-Jun-19 19:00N 28°29' W 016°13'0 0.0
2018-Jun-19 18:30N 28°29' W 016°13'0 0.0
2018-Jun-19 18:00N 28°29' W 016°13'0 0.0
2018-Jun-19 17:30N 28°29' W 016°13'0 0.0
2018-Jun-19 17:00N 28°29' W 016°13'0 0.0
2018-Jun-19 16:30N 28°29' W 016°13'0 0.0
2018-Jun-19 16:00N 28°29' W 016°13'0 0.0
2018-Jun-19 15:30N 28°29' W 016°13'0 0.0
2018-Jun-19 15:00N 28°29' W 016°13'0 0.0
2018-Jun-19 14:30N 28°29' W 016°13'0 0.0
2018-Jun-19 14:01N 28°29' W 016°13'2 3.6
2018-Jun-19 13:30N 28°28' W 016°12'815.4
2018-Jun-19 13:00N 28°32' W 016°04'816.3
2018-Jun-19 12:30N 28°37' W 015°57'816.1
2018-Jun-19 12:00N 28°42' W 015°50'916.0
2018-Jun-19 11:28N 28°48' W 015°43'716.3
2018-Jun-19 11:01N 28°53' W 015°37'916.4
2018-Jun-19 10:29N 28°58' W 015°29'816.3
2018-Jun-19 10:00N 29°04' W 015°22'816.6
2018-Jun-19 09:30N 29°09' W 015°15'816.6
2018-Jun-19 09:00N 29°14' W 015°08'816.5
2018-Jun-19 08:30N 29°19' W 015°01'816.3
2018-Jun-19 08:00N 29°25' W 014°54'816.1
2018-Jun-19 07:30N 29°30' W 014°47'815.9
2018-Jun-19 06:58N 29°36' W 014°39'916.6
2018-Jun-19 06:27N 29°41' W 014°32'916.4
2018-Jun-19 05:54N 29°47' W 014°24'916.0
2018-Jun-19 05:19N 29°53' W 014°16'616.1
2018-Jun-19 04:57N 29°57' W 014°11'56615.7
2018-Jun-17 16:56N 35°58' W 005°31'614.9
2018-Jun-17 16:30N 36°00' W 005°24'714.8
2018-Jun-17 16:00N 36°02' W 005°15'17515.0
2018-Jun-17 04:23N 36°46' W 001°45'716.7
2018-Jun-17 03:57N 36°51' W 001°37'1316.4
2018-Jun-17 03:08N 36°59' W 001°24'416.6
2018-Jun-17 02:56N 37°01' W 001°21'816.7
2018-Jun-17 02:29N 37°07' W 001°15'816.9
2018-Jun-17 02:00N 37°12' W 001°07'816.5
2018-Jun-17 01:30N 37°17' W 000°59'816.4
2018-Jun-17 01:00N 37°22' W 000°51'816.3
2018-Jun-17 00:30N 37°27' W 000°43'816.4
2018-Jun-17 00:00N 37°33' W 000°35'816.7
2018-Jun-16 23:31N 37°39' W 000°29'916.9
2018-Jun-16 22:58N 37°47' W 000°22'816.8
2018-Jun-16 22:30N 37°53' W 000°17'1516.7
2018-Jun-16 21:36N 38°06' W 000°07'116.6
2018-Jun-16 21:31N 38°08' W 000°06'816.7
2018-Jun-16 21:00N 38°15' W 000°00'816.4
2018-Jun-16 20:30N 38°21' E 000°05'816.3
2018-Jun-16 20:00N 38°28' E 000°11'815.8
2018-Jun-16 19:30N 38°35' E 000°17'915.7
2018-Jun-16 18:56N 38°42' E 000°23'815.0
2018-Jun-16 18:23N 38°50' E 000°20'4415.9
2018-Jun-16 15:37N 39°29' W 000°06'316.3
2018-Jun-16 15:28N 39°32' W 000°07'714.3
2018-Jun-16 14:57N 39°38' W 000°13'3 0.3
2018-Jun-16 04:40N 39°36' W 000°10'10115.2
2018-Jun-15 22:02N 40°41' E 001°32'1316.4
2018-Jun-15 21:13N 40°51' E 001°43'416.3
2018-Jun-15 20:58N 40°54' E 001°47'816.7
2018-Jun-15 20:30N 40°60' E 001°53'917.0
2018-Jun-15 20:00N 41°06' E 002°01'816.9
2018-Jun-15 19:30N 41°13' E 002°08'714.0
2018-Jun-15 19:01N 41°20' E 002°10'1 2.4
2018-Jun-15 18:31N 41°21' E 002°10'0 0.0
2018-Jun-15 18:00N 41°21' E 002°10'0 0.0
2018-Jun-15 17:30N 41°21' E 002°10'0 0.0
2018-Jun-15 17:00N 41°21' E 002°10'0 0.0
2018-Jun-15 16:30N 41°21' E 002°10'0 0.0
2018-Jun-15 16:00N 41°21' E 002°10'0 0.0
2018-Jun-15 15:30N 41°21' E 002°10'0 0.0
2018-Jun-15 15:00N 41°21' E 002°10'0 0.0
2018-Jun-15 14:30N 41°21' E 002°10'0 0.0
2018-Jun-15 14:00N 41°21' E 002°10'0 0.0
2018-Jun-15 13:27N 41°21' E 002°10'0 0.0
2018-Jun-15 13:00N 41°21' E 002°10'0 0.0
2018-Jun-15 12:30N 41°21' E 002°10'0 0.0
2018-Jun-15 11:57N 41°21' E 002°10'0 0.0
2018-Jun-15 11:30N 41°21' E 002°10'0 0.0
2018-Jun-15 11:00N 41°21' E 002°10'0 0.0
2018-Jun-15 10:30N 41°21' E 002°10'0 0.0
2018-Jun-15 10:00N 41°21' E 002°10'0 0.0
2018-Jun-15 09:30N 41°21' E 002°10'0 0.0
2018-Jun-15 09:00N 41°21' E 002°10'0 0.0
2018-Jun-15 08:30N 41°21' E 002°10'0 0.0
2018-Jun-15 08:00N 41°21' E 002°10'0 0.0
2018-Jun-15 07:30N 41°21' E 002°10'0 0.0
2018-Jun-15 07:00N 41°21' E 002°10'0 0.0
2018-Jun-15 06:24N 41°21' E 002°10'0 0.0
2018-Jun-15 06:00N 41°21' E 002°10'0 0.0
2018-Jun-15 05:30N 41°21' E 002°10'0 0.0
2018-Jun-15 05:00N 41°21' E 002°10'0 0.0
2018-Jun-15 04:30N 41°21' E 002°10'0 0.0
2018-Jun-15 04:00N 41°21' E 002°10'0 0.0
2018-Jun-15 03:30N 41°21' E 002°10'0 0.0
2018-Jun-15 03:00N 41°21' E 002°10'0 0.0
2018-Jun-15 02:30N 41°21' E 002°10'0 0.0
2018-Jun-15 02:00N 41°21' E 002°10'0 0.0
2018-Jun-15 01:30N 41°21' E 002°10'0 0.0
2018-Jun-15 01:00N 41°21' E 002°10'0 0.0
2018-Jun-15 00:30N 41°21' E 002°10'0 0.0
2018-Jun-15 00:00N 41°21' E 002°10'0 0.0
2018-Jun-14 23:30N 41°21' E 002°10'0 0.0
2018-Jun-14 23:00N 41°21' E 002°10'0 0.0
2018-Jun-14 22:27N 41°21' E 002°10'0 0.0
2018-Jun-14 21:57N 41°21' E 002°10'0 0.0
2018-Jun-14 21:27N 41°21' E 002°10'0 0.0
2018-Jun-14 20:51N 41°21' E 002°10'0 0.0
2018-Jun-14 20:27N 41°21' E 002°10'0 0.0
2018-Jun-14 19:57N 41°21' E 002°10'0 0.0
2018-Jun-14 19:27N 41°21' E 002°10'0 0.0
2018-Jun-14 18:57N 41°21' E 002°10'0 0.0
2018-Jun-14 18:27N 41°21' E 002°10'0 0.0
2018-Jun-14 17:57N 41°21' E 002°10'0 0.0
2018-Jun-14 17:21N 41°21' E 002°10'0 0.0
2018-Jun-14 16:57N 41°21' E 002°10'0 0.0
2018-Jun-14 16:27N 41°21' E 002°10'0 0.0
2018-Jun-14 15:57N 41°21' E 002°10'0 0.0
2018-Jun-14 15:30N 41°21' E 002°10'1 2.9
2018-Jun-14 15:00N 41°19' E 002°10'2 4.9
2018-Jun-14 14:30N 41°17' E 002°12'1 2.6
2018-Jun-14 14:00N 41°19' E 002°11'0 0.8
2018-Jun-14 13:29N 41°19' E 002°12'0 0.1
2018-Jun-14 12:59N 41°19' E 002°12'0 0.0
2018-Jun-14 12:29N 41°19' E 002°12'0 0.0
2018-Jun-14 11:59N 41°19' E 002°12'0 0.1
2018-Jun-14 11:29N 41°19' E 002°12'0 0.0
2018-Jun-14 10:59N 41°19' E 002°12'0 0.0
2018-Jun-14 10:29N 41°19' E 002°12'0 0.1
2018-Jun-14 09:59N 41°19' E 002°12'0 0.0
2018-Jun-14 09:29N 41°19' E 002°12'0 0.0
2018-Jun-14 08:59N 41°19' E 002°12'0 0.0
2018-Jun-14 07:56N 41°19' E 002°12'0 0.0
2018-Jun-14 07:29N 41°19' E 002°12'0 0.1
2018-Jun-14 06:59N 41°19' E 002°12'0 0.0
2018-Jun-14 06:29N 41°19' E 002°12'0 0.0
2018-Jun-14 05:59N 41°19' E 002°12'0 0.0
2018-Jun-14 05:29N 41°19' E 002°12'0 0.0
2018-Jun-14 04:59N 41°19' E 002°12'0 0.1
2018-Jun-14 04:29N 41°19' E 002°12'0 0.0
2018-Jun-14 03:59N 41°19' E 002°12'0 0.1
2018-Jun-14 03:29N 41°19' E 002°12'0 0.1
2018-Jun-14 02:59N 41°19' E 002°12'0 0.0
2018-Jun-14 02:29N 41°19' E 002°12'0 0.0
2018-Jun-14 01:59N 41°19' E 002°12'0 0.0
2018-Jun-14 01:29N 41°19' E 002°12'0 0.1
2018-Jun-14 00:59N 41°19' E 002°12'0 0.1
2018-Jun-14 00:29N 41°19' E 002°12'0 0.0
2018-Jun-13 23:59N 41°19' E 002°12'0 0.0
2018-Jun-13 23:29N 41°19' E 002°12'0 0.0
2018-Jun-13 22:59N 41°19' E 002°12'0 0.0
2018-Jun-13 22:29N 41°19' E 002°12'0 0.0
2018-Jun-13 21:59N 41°19' E 002°12'0 0.0
2018-Jun-13 21:29N 41°19' E 002°12'0 0.0
2018-Jun-13 20:59N 41°19' E 002°12'0 0.0
2018-Jun-13 20:29N 41°19' E 002°12'0 0.0
2018-Jun-13 19:59N 41°19' E 002°12'0 0.0
2018-Jun-13 19:29N 41°19' E 002°12'0 0.1
2018-Jun-13 18:59N 41°19' E 002°12'0 0.1
2018-Jun-13 18:29N 41°19' E 002°12'0 0.0
2018-Jun-13 17:59N 41°19' E 002°12'0 0.1
2018-Jun-13 17:29N 41°19' E 002°12'0 0.0
2018-Jun-13 16:59N 41°19' E 002°12'0 0.0
2018-Jun-13 16:29N 41°19' E 002°12'0 0.1
2018-Jun-13 15:59N 41°19' E 002°12'0 0.1
2018-Jun-13 15:29N 41°19' E 002°12'0 0.1
2018-Jun-13 14:59N 41°19' E 002°12'0 0.1
2018-Jun-13 14:29N 41°19' E 002°12'0 0.0
2018-Jun-13 13:59N 41°19' E 002°12'0 0.0
2018-Jun-13 13:29N 41°19' E 002°12'0 0.0
2018-Jun-13 12:59N 41°19' E 002°12'0 0.1
2018-Jun-13 12:29N 41°19' E 002°12'0 0.0
2018-Jun-13 11:59N 41°19' E 002°12'0 0.0
2018-Jun-13 11:29N 41°19' E 002°12'0 0.0
2018-Jun-13 10:59N 41°19' E 002°12'0 0.0
2018-Jun-13 10:29N 41°19' E 002°12'0 0.0
2018-Jun-13 09:59N 41°19' E 002°12'0 0.0
2018-Jun-13 09:29N 41°19' E 002°12'0 0.0
2018-Jun-13 08:59N 41°19' E 002°12'0 0.0
2018-Jun-13 08:29N 41°19' E 002°12'0 0.2
2018-Jun-13 07:59N 41°19' E 002°12'0 0.0
2018-Jun-13 07:29N 41°19' E 002°12'0 0.0
2018-Jun-13 06:59N 41°19' E 002°12'0 0.0
2018-Jun-13 06:29N 41°19' E 002°12'0 0.1
2018-Jun-13 05:59N 41°19' E 002°12'0 0.1
2018-Jun-13 05:29N 41°19' E 002°12'0 0.1
2018-Jun-13 04:59N 41°19' E 002°12'0 0.1
2018-Jun-13 04:29N 41°19' E 002°12'0 0.0
2018-Jun-13 03:59N 41°19' E 002°12'0 0.0
2018-Jun-13 03:29N 41°19' E 002°12'0 0.0
2018-Jun-13 02:59N 41°19' E 002°12'0 0.0
2018-Jun-13 02:29N 41°19' E 002°12'0 0.1
2018-Jun-13 01:59N 41°19' E 002°12'0 0.2
2018-Jun-13 01:26N 41°19' E 002°12'0 0.0
2018-Jun-13 00:59N 41°19' E 002°12'0 0.0
2018-Jun-13 00:29N 41°19' E 002°12'0 0.0
2018-Jun-12 23:59N 41°19' E 002°12'0 0.0
2018-Jun-12 23:29N 41°19' E 002°12'0 0.0
2018-Jun-12 22:59N 41°19' E 002°12'0 0.1
2018-Jun-12 22:29N 41°19' E 002°12'0 0.2
2018-Jun-12 21:59N 41°19' E 002°12'0 0.0
2018-Jun-12 21:29N 41°19' E 002°12'0 0.1
2018-Jun-12 20:59N 41°19' E 002°12'0 0.0
2018-Jun-12 20:29N 41°19' E 002°12'0 0.0
2018-Jun-12 19:59N 41°19' E 002°12'0 0.1
2018-Jun-12 19:29N 41°19' E 002°12'0 0.3
2018-Jun-12 19:00N 41°19' E 002°12'2 4.2
2018-Jun-12 18:31N 41°21' E 002°10'0 0.3
2018-Jun-12 17:57N 41°21' E 002°10'0 0.0
2018-Jun-12 17:30N 41°21' E 002°10'0 0.0
2018-Jun-12 17:00N 41°21' E 002°10'0 0.0
2018-Jun-12 16:30N 41°21' E 002°10'0 0.0
2018-Jun-12 16:00N 41°21' E 002°10'0 0.0
2018-Jun-12 15:30N 41°21' E 002°10'0 0.0
2018-Jun-12 15:00N 41°21' E 002°10'0 0.0
2018-Jun-12 14:27N 41°21' E 002°10'0 0.0
2018-Jun-12 14:00N 41°21' E 002°10'0 0.0
2018-Jun-12 13:30N 41°21' E 002°10'0 0.0
2018-Jun-12 12:57N 41°21' E 002°10'  

Dump ship's entire track history